Date,TemperatureHighF,TemperatureAvgF,TemperatureLowF,DewpointHighF,DewpointAvgF,DewpointLowF,HumidityHigh,HumidityAvg,HumidityLow,PressureMaxIn,PressureMinIn,WindSpeedMaxMPH,WindSpeedAvgMPH,GustSpeedMaxMPH,PrecipitationSumIn
2013-12-1,73.9,52.7,39.6,53.4,44.8,39.2,99,78,39,30.39,30.26,4,0,5,0.00
2013-12-2,70.3,51.9,39.2,53.3,46.7,38.6,99,84,47,30.28,30.02,6,1,11,0.00
2013-12-3,56.7,51.0,42.4,54.7,40.3,31.5,95,68,46,30.03,29.90,13,2,21,0.00
2013-12-4,56.5,42.5,31.5,32.8,26.3,18.8,77,56,24,30.13,29.98,4,0,8,0.00
2013-12-5,55.6,38.7,26.6,27.9,21.1,14.7,78,54,22,30.22,30.12,4,0,8,0.00
2013-12-6,55.9,44.0,30.9,48.7,36.2,27.1,95,76,45,30.24,29.96,7,1,18,0.39
2013-12-7,51.3,45.7,39.6,48.2,36.8,25.1,93,73,37,30.18,29.97,15,3,21,0.07
2013-12-8,28.8,28.3,28.0,21.0,20.1,19.0,73,71,68,30.38,30.37,1,0,2,0.00
2013-12-9,55.2,37.7,26.4,25.5,20.0,14.1,77,53,22,30.47,30.37,6,1,8,0.00
2013-12-10,58.1,39.3,26.2,32.9,27.0,20.8,88,64,31,30.46,30.25,4,0,7,0.00
2013-12-11,62.1,42.1,29.3,35.2,29.1,25.7,89,64,27,30.29,30.21,4,0,7,0.00
2013-12-12,64.8,43.5,29.7,39.7,32.4,26.6,91,69,30,30.31,30.20,4,0,4,0.00
2013-12-13,64.8,44.3,31.6,44.5,36.1,29.3,97,75,39,30.38,30.28,4,0,7,0.00
2013-12-14,66.7,45.6,32.7,46.6,35.1,30.1,96,71,32,30.45,30.34,4,0,4,0.00
2013-12-15,68.2,46.3,32.5,42.3,35.7,29.9,96,70,33,30.42,30.28,4,0,5,0.00
2013-12-16,72.9,50.9,36.0,42.6,36.0,31.3,89,62,23,30.29,30.16,4,0,6,0.00
2013-12-18,63.5,57.0,41.2,49.4,46.7,38.8,91,69,56,30.02,29.88,4,1,5,0.00
2013-12-25,44.4,42.8,41.2,38.5,37.7,36.9,85,82,79,30.33,30.27,2,0,2,0.00
2013-12-26,73.4,49.8,35.4,47.0,38.5,32.7,95,70,30,30.30,30.19,3,0,4,0.00
2013-12-27,64.4,46.7,35.2,46.5,39.6,33.2,97,78,44,30.28,30.15,3,0,4,0.00
2013-12-28,38.8,36.0,34.5,36.5,33.8,32.7,94,92,89,30.18,30.15,2,0,2,0.00